Ana Sayfa
METAR-TAF:

METAR-TAF

Havaalanları :

Lawrence Municipal Airport

Lawrence, Massachusetts, Amerika Birleşik Devletleri

Enlem: 42-42-47N, Boylam: 071-07-33W, yükseklik: 45 m

Güncel hava durumu gözlemi

Rapor saat 08:54 UTC de 41 dakika önce yapıldı.
Rüzgar güney/güneybatıdan 3 kt
Sıcaklık 8°C
Nem 93%
Basınç 1022 hPa
Görüş mesafesi: 16.1 km
Açık gökyüzü

METAR: KLWM 250854Z AUTO 21003KT 10SM CLR 08/07 A3017 RMK AO2 SLP215 T00780067 51008

Saat: 05:35 (09:35 UTC)


TAF: eksik

4.000'den fazla havaalanı için hava durumu gözlemleri ve tahminleri (METAR ve TAF raporları).

Kullanılabilir istasyonlar harita üzerinde sarı ve kırmızı noktalarla gösterilir.

İstasyonun adını görmek için fareyi noktanın üzerinde gezdirin.

Sonrasında hava gözlem ve tahminlerini görmek için tıklayın.

Haritayı değiştirmek için: yaklaştırmak için siyah artı işaretli yeşil düğmeye ve uzaklaştırmak için de eksi işaretli düğmeye hızla tıklayın; bitişik haritalar için yeşil okları kullanın.


METAR-TAF: